PWSweather.com
Personal Weather Stations
Station Observations
FAUSKE
Nordland, Norway, FauskeNO 8200

Nordland, NorwayFauskeNO 8200

Lat: 67.2607586, Lon: 15.4114204

Elevation: 40

Station Type: Davis Vantage PRO2

http://www.bjornli.net/weather.html

Latest ConditionsUpdated 8:40:06 AM GMT+01:01 Tuesday, Apr 21, 2015
Currently Today's Max Today's Min Today's Average
Temperature 40.4°F4.7°C 40.8°F4.9°C 40.0°F4.4°C 40.4°F4.7°C
Dew Point 38.5°F3.6°C 39.0°F3.9°C 38.4°F3.6°C 38.7°F3.7°C
Winds Calm Calm 4.0 mph WSW6.4 kmh WSW - 0.2 mph 0.3 kmh
Wind Gusts -- 6.0 mph9.7 kmh - -
Humidity 93% 95% 92% 94%
Pressure 30.19 in1022.4 mb 30.22 in1023.4 mb 30.19 in1022.4 mb -
Hour Temp Dew Point Humidity Winds Wind Gusts Pressure Precip Precip Rate Daily Precip Total
08:40 AM 40.4°F4.7°C 38.5°F3.6°C 93% Calm Calm -- 30.19 in1022.4 mb 0.00 in0.0 mm 0.00 in0.0 mm 0.02 in0.5 mm
08:30 AM 40.4°F4.7°C 38.5°F3.6°C 93% Calm Calm -- 30.19 in1022.4 mb 0.00 in0.0 mm 0.00 in0.0 mm 0.02 in0.5 mm
08:10 AM 40.6°F4.8°C 38.7°F3.7°C 93% Calm Calm -- 30.19 in1022.4 mb 0.00 in0.0 mm 0.00 in0.0 mm 0.02 in0.5 mm
08:00 AM 40.7°F4.8°C 38.8°F3.8°C 93% Calm Calm -- 30.19 in1022.4 mb 0.00 in0.0 mm 0.00 in0.0 mm 0.02 in0.5 mm
07:40 AM 40.6°F4.8°C 38.7°F3.7°C 93% Calm Calm -- 30.19 in1022.4 mb 0.00 in0.0 mm 0.00 in0.0 mm 0.02 in0.5 mm
07:30 AM 40.5°F4.7°C 38.6°F3.7°C 93% Calm Calm -- 30.19 in1022.4 mb 0.00 in0.0 mm 0.00 in0.0 mm 0.02 in0.5 mm
07:10 AM 40.5°F4.7°C 38.4°F3.6°C 92% Calm Calm -- 30.19 in1022.4 mb 0.00 in0.0 mm 0.00 in0.0 mm 0.02 in0.5 mm
07:00 AM 40.6°F4.8°C 38.5°F3.6°C 92% Calm Calm -- 30.19 in1022.4 mb 0.00 in0.0 mm 0.00 in0.0 mm 0.02 in0.5 mm
06:40 AM 40.7°F4.8°C 38.6°F3.7°C 92% Calm Calm 1.0 mph1.6 kmh 30.20 in1022.7 mb 0.00 in0.0 mm 0.00 in0.0 mm 0.02 in0.5 mm
06:30 AM 40.8°F4.9°C 38.7°F3.7°C 92% Calm Calm -- 30.20 in1022.7 mb 0.00 in0.0 mm 0.00 in0.0 mm 0.02 in0.5 mm
06:10 AM 40.7°F4.8°C 38.6°F3.7°C 92% Calm Calm -- 30.20 in1022.7 mb 0.00 in0.0 mm 0.00 in0.0 mm 0.02 in0.5 mm
06:00 AM 40.6°F4.8°C 38.5°F3.6°C 92% Calm Calm -- 30.20 in1022.7 mb 0.00 in0.0 mm 0.00 in0.0 mm 0.02 in0.5 mm
05:40 AM 40.6°F4.8°C 38.7°F3.7°C 93% Calm Calm 4.0 mph6.4 kmh 30.20 in1022.7 mb 0.00 in0.0 mm 0.00 in0.0 mm 0.02 in0.5 mm
05:30 AM 40.7°F4.8°C 38.6°F3.7°C 92% Calm Calm -- 30.20 in1022.7 mb 0.00 in0.0 mm 0.00 in0.0 mm 0.02 in0.5 mm
05:10 AM 40.5°F4.7°C 38.6°F3.7°C 93% 4.0 mph WSW6.4 kmh WSW 5.0 mph8.0 kmh 30.19 in1022.4 mb 0.00 in0.0 mm 0.00 in0.0 mm 0.02 in0.5 mm
05:00 AM 40.4°F4.7°C 38.5°F3.6°C 93% Calm Calm -- 30.19 in1022.4 mb 0.00 in0.0 mm 0.00 in0.0 mm 0.02 in0.5 mm
04:40 AM 40.4°F4.7°C 38.8°F3.8°C 94% Calm Calm -- 30.20 in1022.7 mb 0.00 in0.0 mm 0.00 in0.0 mm 0.02 in0.5 mm
04:30 AM 40.5°F4.7°C 38.9°F3.8°C 94% Calm Calm -- 30.20 in1022.7 mb 0.00 in0.0 mm 0.00 in0.0 mm 0.02 in0.5 mm
04:10 AM 40.2°F4.6°C 38.9°F3.8°C 95% 1.0 mph WSW1.6 kmh WSW 3.0 mph4.8 kmh 30.21 in1023.0 mb 0.00 in0.0 mm 0.00 in0.0 mm 0.02 in0.5 mm
04:00 AM 40.1°F4.5°C 38.8°F3.8°C 95% Calm Calm -- 30.21 in1023.0 mb 0.00 in0.0 mm 0.00 in0.0 mm 0.02 in0.5 mm
03:40 AM 40.1°F4.5°C 38.8°F3.8°C 95% Calm Calm -- 30.21 in1023.0 mb 0.00 in0.0 mm 0.00 in0.0 mm 0.02 in0.5 mm
03:30 AM 40.1°F4.5°C 38.8°F3.8°C 95% Calm Calm -- 30.21 in1023.0 mb 0.00 in0.0 mm 0.00 in0.0 mm 0.02 in0.5 mm
03:10 AM 40.1°F4.5°C 38.8°F3.8°C 95% Calm Calm -- 30.21 in1023.0 mb 0.00 in0.0 mm 0.00 in0.0 mm 0.02 in0.5 mm
03:00 AM 40.1°F4.5°C 38.8°F3.8°C 95% Calm Calm -- 30.21 in1023.0 mb 0.00 in0.0 mm 0.00 in0.0 mm 0.02 in0.5 mm
02:40 AM 40.2°F4.6°C 38.9°F3.8°C 95% Calm Calm 2.0 mph3.2 kmh 30.21 in1023.0 mb 0.01 in0.3 mm 0.00 in0.0 mm 0.02 in0.5 mm
02:30 AM 40.2°F4.6°C 38.9°F3.8°C 95% 1.0 mph WSW1.6 kmh WSW 1.0 mph1.6 kmh 30.21 in1023.0 mb 0.01 in0.3 mm 0.00 in0.0 mm 0.02 in0.5 mm
02:10 AM 40.3°F4.6°C 39.0°F3.9°C 95% Calm Calm 2.0 mph3.2 kmh 30.21 in1023.0 mb 0.01 in0.3 mm 0.00 in0.0 mm 0.02 in0.5 mm
02:00 AM 40.3°F4.6°C 39.0°F3.9°C 95% Calm Calm -- 30.22 in1023.4 mb 0.01 in0.3 mm 0.02 in0.5 mm 0.02 in0.5 mm
01:40 AM 40.2°F4.6°C 38.9°F3.8°C 95% Calm Calm 4.0 mph6.4 kmh 30.21 in1023.0 mb 0.00 in0.0 mm 0.00 in0.0 mm 0.01 in0.3 mm
01:30 AM 40.0°F4.4°C 38.7°F3.7°C 95% Calm Calm -- 30.21 in1023.0 mb 0.00 in0.0 mm 0.00 in0.0 mm 0.01 in0.3 mm
01:10 AM 40.1°F4.5°C 38.8°F3.8°C 95% Calm Calm -- 30.21 in1023.0 mb 0.01 in0.3 mm 0.00 in0.0 mm 0.01 in0.3 mm
01:00 AM 40.1°F4.5°C 38.8°F3.8°C 95% Calm Calm -- 30.21 in1023.0 mb 0.01 in0.3 mm 0.00 in0.0 mm 0.01 in0.3 mm
12:40 AM 40.2°F4.6°C 38.6°F3.7°C 94% Calm Calm 4.0 mph6.4 kmh 30.22 in1023.4 mb 0.01 in0.3 mm 0.00 in0.0 mm 0.01 in0.3 mm
12:30 AM 40.3°F4.6°C 38.7°F3.7°C 94% Calm Calm -- 30.22 in1023.4 mb 0.01 in0.3 mm 0.03 in0.8 mm 0.01 in0.3 mm
12:10 AM 40.5°F4.7°C 38.9°F3.8°C 94% Calm Calm 6.0 mph9.7 kmh 30.22 in1023.4 mb 0.00 in0.0 mm 0.00 in0.0 mm 0.00 in0.0 mm
12:00 AM 40.6°F4.8°C 38.7°F3.7°C 93% Calm Calm -- 30.22 in1023.4 mb 0.00 in0.0 mm 0.00 in0.0 mm 0.00 in0.0 mm